createdAt,value
2022-08-21T00:02:14.039Z,12.90
2022-08-21T00:04:55.911Z,10.90
2022-08-21T00:07:26.759Z,11.40
2022-08-21T00:09:55.121Z,11.70
2022-08-21T00:12:23.365Z,10.20
2022-08-21T00:14:51.300Z,9.50
2022-08-21T00:17:25.241Z,11.50
2022-08-21T00:19:53.065Z,9.90
2022-08-21T00:22:21.053Z,9.80
2022-08-21T00:24:51.820Z,10.60
2022-08-21T00:27:19.696Z,9.90
2022-08-21T00:29:47.521Z,9.70
2022-08-21T00:32:22.816Z,10.00
2022-08-21T00:34:52.747Z,8.90
2022-08-21T00:37:21.380Z,9.10
2022-08-21T00:39:49.752Z,10.20
2022-08-21T00:42:18.771Z,9.80
2022-08-21T00:44:50.163Z,10.60
2022-08-21T00:47:19.869Z,10.50
2022-08-21T00:49:47.710Z,10.60
2022-08-21T00:52:25.706Z,11.20
2022-08-21T00:54:57.861Z,10.00
2022-08-21T00:57:34.672Z,9.70
2022-08-21T01:00:11.245Z,10.00
2022-08-21T01:02:39.716Z,10.20
2022-08-21T01:05:08.491Z,12.00
2022-08-21T01:07:36.463Z,9.60
2022-08-21T01:10:07.603Z,8.70
2022-08-21T01:12:37.188Z,9.90
2022-08-21T01:15:09.063Z,8.80
2022-08-21T01:17:38.448Z,8.60
2022-08-21T01:20:11.770Z,9.50
2022-08-21T01:22:40.257Z,8.90
2022-08-21T01:25:10.842Z,9.90
2022-08-21T01:27:40.701Z,8.80
2022-08-21T01:30:24.953Z,10.70
2022-08-21T01:32:55.150Z,16.10
2022-08-21T01:35:23.509Z,22.80
2022-08-21T01:37:51.315Z,24.10
2022-08-21T01:40:20.238Z,17.90
2022-08-21T01:42:48.593Z,16.40
2022-08-21T01:45:17.579Z,14.80
2022-08-21T01:47:45.921Z,10.10
2022-08-21T01:50:18.420Z,11.30
2022-08-21T01:52:46.305Z,8.90
2022-08-21T01:55:17.180Z,9.70
2022-08-21T01:57:46.849Z,8.10
2022-08-21T02:00:20.580Z,8.80
2022-08-21T02:02:48.319Z,8.50
2022-08-21T02:05:16.591Z,7.80
2022-08-21T02:07:50.222Z,7.80
2022-08-21T02:10:25.113Z,7.40
2022-08-21T02:12:53.307Z,8.50
2022-08-21T02:15:21.718Z,6.80
2022-08-21T02:17:56.956Z,7.80
2022-08-21T02:20:36.973Z,7.10
2022-08-21T02:23:08.683Z,7.10
2022-08-21T02:25:38.060Z,7.50
2022-08-21T02:28:14.264Z,9.20
2022-08-21T02:30:47.194Z,7.60
2022-08-21T02:33:17.271Z,7.60
2022-08-21T02:35:48.206Z,7.30
2022-08-21T02:38:21.930Z,8.80
2022-08-21T02:40:52.334Z,7.90
2022-08-21T02:43:23.980Z,8.00
2022-08-21T02:45:53.852Z,7.40
2022-08-21T02:48:26.176Z,8.40
2022-08-21T02:51:03.276Z,7.80
2022-08-21T02:53:32.317Z,8.60
2022-08-21T02:56:03.848Z,9.20
2022-08-21T02:58:39.625Z,8.40
2022-08-21T03:01:10.551Z,8.40
2022-08-21T03:03:42.601Z,8.30
2022-08-21T03:06:15.680Z,7.90
2022-08-21T03:08:46.243Z,9.50
2022-08-21T03:11:16.066Z,8.20
2022-08-21T03:13:44.540Z,9.40
2022-08-21T03:16:12.379Z,9.30
2022-08-21T03:18:40.256Z,8.70
2022-08-21T03:21:08.320Z,8.90
2022-08-21T03:23:36.085Z,11.30
2022-08-21T03:26:05.193Z,8.70
2022-08-21T03:28:33.596Z,10.10
2022-08-21T03:31:01.604Z,8.90
2022-08-21T03:33:29.482Z,8.80
2022-08-21T03:36:06.995Z,9.20
2022-08-21T03:38:38.205Z,10.20
2022-08-21T03:41:08.280Z,9.10
2022-08-21T03:43:36.654Z,9.70
2022-08-21T03:46:06.770Z,10.10
2022-08-21T03:48:38.132Z,9.80
2022-08-21T03:51:07.688Z,9.50
2022-08-21T03:53:36.199Z,9.90
2022-08-21T03:56:05.401Z,8.90
2022-08-21T03:58:33.580Z,9.80
2022-08-21T04:01:02.562Z,9.40
2022-08-21T04:03:30.486Z,9.20
2022-08-21T04:05:58.467Z,10.50
2022-08-21T04:08:26.845Z,9.40
2022-08-21T04:10:59.373Z,9.40
2022-08-21T04:13:29.342Z,9.70
2022-08-21T04:15:59.668Z,9.20
2022-08-21T04:18:27.758Z,10.30
2022-08-21T04:20:59.885Z,9.70
2022-08-21T04:23:28.315Z,9.70
2022-08-21T04:25:57.904Z,9.00
2022-08-21T04:28:30.292Z,9.80
2022-08-21T04:30:58.976Z,9.80
2022-08-21T04:33:26.972Z,10.10
2022-08-21T04:35:55.181Z,9.40
2022-08-21T04:38:23.259Z,10.50
2022-08-21T04:40:52.428Z,9.10
2022-08-21T04:43:24.357Z,9.00
2022-08-21T04:45:53.888Z,10.00
2022-08-21T04:48:25.231Z,10.30
2022-08-21T04:51:18.832Z,9.60
2022-08-21T04:54:13.288Z,11.10
2022-08-21T04:56:46.678Z,10.30
2022-08-21T04:59:23.994Z,12.30
2022-08-21T05:01:52.964Z,10.60
2022-08-21T05:04:28.182Z,12.50
2022-08-21T05:07:01.431Z,10.40
2022-08-21T05:09:29.957Z,11.70
2022-08-21T05:11:58.892Z,11.10
2022-08-21T05:14:28.386Z,10.00
2022-08-21T05:16:56.136Z,10.10
2022-08-21T05:19:24.519Z,11.60
2022-08-21T05:21:52.733Z,11.60
2022-08-21T05:24:20.848Z,8.90
2022-08-21T05:26:49.084Z,10.10
2022-08-21T05:29:19.002Z,10.20
2022-08-21T05:31:48.364Z,11.60
2022-08-21T05:34:23.444Z,9.70
2022-08-21T05:36:51.337Z,10.80
2022-08-21T05:39:19.254Z,9.40
2022-08-21T05:41:47.208Z,9.40
2022-08-21T05:44:15.286Z,8.80
2022-08-21T05:46:43.064Z,8.90
2022-08-21T05:49:12.263Z,9.30
2022-08-21T05:51:43.045Z,9.50
2022-08-21T05:54:12.194Z,8.20
2022-08-21T05:56:40.295Z,8.40
2022-08-21T05:59:09.039Z,7.90
2022-08-21T06:01:37.719Z,7.00
2022-08-21T06:04:06.613Z,7.60
2022-08-21T06:06:36.050Z,6.90
2022-08-21T06:09:06.026Z,6.50
2022-08-21T06:11:34.722Z,6.80
2022-08-21T06:14:03.146Z,6.80
2022-08-21T06:16:31.016Z,6.00
2022-08-21T06:19:02.875Z,6.60
2022-08-21T06:21:31.471Z,6.50
2022-08-21T06:23:59.422Z,6.90
2022-08-21T06:26:27.402Z,8.20
2022-08-21T06:28:55.271Z,7.20
2022-08-21T06:31:27.769Z,7.20
2022-08-21T06:33:56.241Z,7.20
2022-08-21T06:36:24.671Z,6.30
2022-08-21T06:38:52.519Z,6.80
2022-08-21T06:41:24.051Z,6.80
2022-08-21T06:43:57.028Z,6.50
2022-08-21T06:46:27.787Z,6.40
2022-08-21T06:48:56.826Z,7.10
2022-08-21T06:51:26.733Z,6.00
2022-08-21T06:53:56.155Z,6.90
2022-08-21T06:56:24.193Z,6.20
2022-08-21T06:58:52.059Z,6.30
2022-08-21T07:01:25.765Z,7.00
2022-08-21T07:03:54.582Z,6.30
2022-08-21T07:06:22.466Z,6.70
2022-08-21T07:08:50.321Z,6.90
2022-08-21T07:11:26.147Z,5.50
2022-08-21T07:13:56.048Z,5.80
2022-08-21T07:16:24.707Z,6.40
2022-08-21T07:18:52.947Z,5.50
2022-08-21T07:21:25.923Z,6.90
2022-08-21T07:23:55.504Z,6.30
2022-08-21T07:26:39.868Z,7.30
2022-08-21T07:29:08.894Z,6.70
2022-08-21T07:31:37.442Z,7.00
2022-08-21T07:34:05.732Z,6.00
2022-08-21T07:36:35.126Z,5.70
2022-08-21T07:39:30.136Z,7.10
2022-08-21T07:41:58.551Z,6.70
2022-08-21T07:44:38.323Z,6.10
2022-08-21T07:47:10.752Z,6.60
2022-08-21T07:49:41.018Z,7.10
2022-08-21T07:52:09.335Z,6.90
2022-08-21T07:54:37.522Z,6.30
2022-08-21T07:57:06.366Z,7.90
2022-08-21T07:59:34.413Z,6.40
2022-08-21T08:02:04.760Z,7.70
2022-08-21T08:04:35.909Z,7.00
2022-08-21T08:07:15.903Z,6.60
2022-08-21T08:09:56.876Z,8.80
2022-08-21T08:12:53.528Z,7.10
2022-08-21T08:15:34.401Z,6.10
2022-08-21T08:18:32.910Z,6.00
2022-08-21T08:21:48.377Z,7.40
2022-08-21T08:24:45.519Z,6.20
2022-08-21T08:27:35.648Z,6.80
2022-08-21T08:30:55.108Z,6.70
2022-08-21T08:38:24.440Z,6.20
2022-08-21T08:41:23.937Z,7.50
2022-08-21T08:44:07.237Z,6.20
2022-08-21T08:46:49.803Z,7.00
2022-08-21T08:49:33.124Z,6.00
2022-08-21T08:52:13.509Z,6.80
2022-08-21T08:54:50.581Z,6.70
2022-08-21T08:57:23.896Z,7.10
2022-08-21T08:59:59.774Z,6.20
2022-08-21T09:02:38.041Z,6.20
2022-08-21T09:05:09.399Z,6.10
2022-08-21T09:08:18.134Z,5.70
2022-08-21T09:11:07.857Z,5.30
2022-08-21T09:13:52.719Z,6.30
2022-08-21T09:17:02.049Z,6.70
2022-08-21T09:20:10.054Z,6.00
2022-08-21T09:23:11.167Z,8.20
2022-08-21T09:26:08.356Z,6.10
2022-08-21T09:28:37.926Z,6.10
2022-08-21T09:31:27.088Z,8.00
2022-08-21T09:34:05.018Z,5.90
2022-08-21T09:36:43.157Z,6.30
2022-08-21T09:39:14.694Z,5.80
2022-08-21T09:41:42.961Z,5.90
2022-08-21T09:44:10.900Z,5.60
2022-08-21T09:46:39.398Z,7.30
2022-08-21T09:49:15.060Z,6.00
2022-08-21T09:51:55.444Z,6.80
2022-08-21T09:54:32.720Z,6.60
2022-08-21T09:57:28.682Z,6.10
2022-08-21T09:59:57.408Z,5.40
2022-08-21T10:02:36.155Z,5.00
2022-08-21T10:05:28.660Z,6.10
2022-08-21T10:07:56.715Z,5.90
2022-08-21T10:10:32.168Z,5.90
2022-08-21T10:13:24.966Z,6.40
2022-08-21T10:16:28.085Z,6.40
2022-08-21T10:19:36.491Z,6.90
2022-08-21T10:22:34.224Z,6.10
2022-08-21T10:25:31.389Z,6.30
2022-08-21T10:28:13.744Z,5.30
2022-08-21T10:30:57.542Z,6.40
2022-08-21T10:33:46.539Z,5.70
2022-08-21T10:36:21.554Z,6.00
2022-08-21T10:39:26.687Z,6.00
2022-08-21T10:42:28.110Z,7.50
2022-08-21T10:45:29.089Z,5.20
2022-08-21T10:48:06.533Z,6.00
2022-08-21T10:50:52.978Z,9.00
2022-08-21T10:53:42.914Z,6.60
2022-08-21T10:56:21.749Z,5.60
2022-08-21T10:59:06.966Z,7.20
2022-08-21T11:01:54.231Z,4.90
2022-08-21T11:04:35.972Z,6.90
2022-08-21T11:07:34.449Z,6.10
2022-08-21T11:10:40.807Z,6.10
2022-08-21T11:13:59.870Z,4.70
2022-08-21T11:16:54.687Z,6.20
2022-08-21T11:20:00.826Z,4.40
2022-08-21T11:22:58.940Z,4.60
2022-08-21T11:25:41.061Z,4.80
2022-08-21T11:28:49.034Z,4.80
2022-08-21T11:31:57.930Z,5.10
2022-08-21T11:35:00.450Z,5.80
2022-08-21T11:37:53.620Z,5.90
2022-08-21T11:41:21.273Z,6.10
2022-08-21T11:44:29.667Z,5.10
2022-08-21T11:47:19.762Z,5.40
2022-08-21T11:50:02.653Z,4.30
2022-08-21T11:52:40.119Z,7.50
2022-08-21T11:55:26.760Z,5.50
2022-08-21T11:58:10.895Z,5.60
2022-08-21T12:01:02.093Z,5.80
2022-08-21T12:03:35.157Z,4.90
2022-08-21T12:06:15.353Z,5.40
2022-08-21T12:09:03.439Z,5.30
2022-08-21T12:11:31.614Z,5.10
2022-08-21T12:14:15.217Z,4.80
2022-08-21T12:16:50.311Z,4.60
2022-08-21T12:19:21.327Z,4.20
2022-08-21T12:21:59.666Z,5.10
2022-08-21T12:24:48.847Z,4.20
2022-08-21T12:27:51.828Z,5.10
2022-08-21T12:30:37.842Z,4.20
2022-08-21T12:33:22.404Z,5.00
2022-08-21T12:35:54.722Z,3.90
2022-08-21T12:38:33.378Z,4.20
2022-08-21T12:41:19.121Z,5.40
2022-08-21T12:44:03.538Z,5.80
2022-08-21T12:46:41.378Z,5.80
2022-08-21T12:49:29.725Z,6.00
2022-08-21T12:52:08.010Z,4.60
2022-08-21T12:54:44.827Z,5.60
2022-08-21T12:57:43.206Z,5.40
2022-08-21T13:00:15.564Z,6.30
2022-08-21T13:02:50.381Z,5.80
2022-08-21T13:05:31.156Z,5.80
2022-08-21T13:08:04.949Z,5.50
2022-08-21T13:10:36.928Z,5.30
2022-08-21T13:13:12.374Z,5.00
2022-08-21T13:15:47.511Z,3.40
2022-08-21T13:18:31.423Z,5.20
2022-08-21T13:21:14.374Z,4.80
2022-08-21T13:23:42.867Z,4.70
2022-08-21T13:26:21.935Z,4.10
2022-08-21T13:28:52.044Z,2.90
2022-08-21T13:31:29.347Z,5.00
2022-08-21T13:33:57.672Z,5.20
2022-08-21T13:36:35.311Z,4.60
2022-08-21T13:39:12.565Z,3.50
2022-08-21T13:41:45.673Z,3.60
2022-08-21T13:44:27.559Z,4.00
2022-08-21T13:46:55.825Z,4.20
2022-08-21T13:49:37.105Z,5.10
2022-08-21T13:52:19.738Z,4.70
2022-08-21T13:54:59.092Z,5.50
2022-08-21T13:57:32.660Z,3.50
2022-08-21T14:00:31.500Z,3.60
2022-08-21T14:03:12.506Z,3.70
2022-08-21T14:05:47.661Z,4.70
2022-08-21T14:08:42.124Z,4.40
2022-08-21T14:11:14.319Z,4.50
2022-08-21T14:14:05.462Z,4.10
2022-08-21T14:16:56.842Z,5.70
2022-08-21T14:19:43.556Z,4.20
2022-08-21T14:22:48.731Z,3.60
2022-08-21T14:25:44.006Z,4.60
2022-08-21T14:28:28.094Z,5.20
2022-08-21T14:30:58.619Z,5.00
2022-08-21T14:33:33.875Z,8.10
2022-08-21T14:36:03.421Z,5.30
2022-08-21T14:38:32.086Z,5.90
2022-08-21T14:41:17.561Z,5.00
2022-08-21T14:43:55.826Z,6.10
2022-08-21T14:46:36.179Z,7.10
2022-08-21T14:49:07.519Z,5.60
2022-08-21T14:51:35.477Z,5.70
2022-08-21T14:54:03.717Z,4.50
2022-08-21T14:56:32.970Z,5.70
2022-08-21T14:59:06.990Z,3.90
2022-08-21T15:01:39.162Z,4.30
2022-08-21T15:04:08.182Z,3.10
2022-08-21T15:06:36.253Z,4.60
2022-08-21T15:09:06.374Z,4.00
2022-08-21T15:11:42.288Z,3.70
2022-08-21T15:14:21.112Z,4.40
2022-08-21T15:16:51.500Z,3.90
2022-08-21T15:19:21.061Z,5.30
2022-08-21T15:21:49.783Z,3.40
2022-08-21T15:24:17.728Z,5.90
2022-08-21T15:26:46.590Z,6.00
2022-08-21T15:29:20.716Z,3.20
2022-08-21T15:32:17.001Z,4.20
2022-08-21T15:34:45.694Z,4.90
2022-08-21T15:37:13.985Z,4.80
2022-08-21T15:39:41.992Z,5.20
2022-08-21T15:42:12.296Z,6.80
2022-08-21T15:44:42.944Z,5.30
2022-08-21T15:47:23.503Z,5.90
2022-08-21T15:49:51.758Z,4.10
2022-08-21T15:52:23.171Z,6.40
2022-08-21T15:54:51.863Z,5.00
2022-08-21T15:57:24.743Z,7.70
2022-08-21T16:00:13.623Z,4.60
2022-08-21T16:02:46.952Z,5.40
2022-08-21T16:05:18.390Z,7.00
2022-08-21T16:07:49.273Z,4.60
2022-08-21T16:10:22.266Z,5.10
2022-08-21T16:12:59.386Z,4.80
2022-08-21T16:15:28.836Z,6.30
2022-08-21T16:17:57.581Z,4.80
2022-08-21T16:20:29.756Z,5.90
2022-08-21T16:22:59.495Z,5.40
2022-08-21T16:25:28.521Z,6.60
2022-08-21T16:28:02.129Z,7.50
2022-08-21T16:30:31.426Z,6.60
2022-08-21T16:33:04.213Z,6.00
2022-08-21T16:35:33.285Z,6.90
2022-08-21T16:38:02.587Z,5.30
2022-08-21T16:40:30.982Z,6.90
2022-08-21T16:42:59.470Z,6.20
2022-08-21T16:45:32.572Z,7.10
2022-08-21T16:48:01.986Z,5.40
2022-08-21T16:50:30.285Z,6.50
2022-08-21T16:52:58.721Z,5.80
2022-08-21T16:55:27.101Z,6.40
2022-08-21T16:57:56.749Z,7.40
2022-08-21T17:00:27.072Z,5.10
2022-08-21T17:02:58.619Z,6.40
2022-08-21T17:05:27.347Z,5.80
2022-08-21T17:07:55.740Z,5.80
2022-08-21T17:10:24.231Z,5.50
2022-08-21T17:12:58.768Z,4.60
2022-08-21T17:15:34.358Z,5.50
2022-08-21T17:18:06.170Z,5.30
2022-08-21T17:20:35.086Z,6.50
2022-08-21T17:23:04.555Z,5.80
2022-08-21T17:25:34.607Z,4.30
2022-08-21T17:28:04.221Z,4.70
2022-08-21T17:30:32.966Z,5.00
2022-08-21T17:33:02.226Z,4.70
2022-08-21T17:35:30.494Z,3.50
2022-08-21T17:37:58.756Z,6.20
2022-08-21T17:40:28.070Z,6.20
2022-08-21T17:42:58.753Z,5.70
2022-08-21T17:45:28.518Z,5.40
2022-08-21T17:47:56.711Z,5.10
2022-08-21T17:50:28.717Z,4.90
2022-08-21T17:52:58.089Z,5.40
2022-08-21T17:55:30.186Z,4.00
2022-08-21T17:57:59.144Z,6.00
2022-08-21T18:00:27.278Z,4.00
2022-08-21T18:03:20.412Z,5.00
2022-08-21T18:05:51.907Z,5.70
2022-08-21T18:08:19.966Z,4.80
2022-08-21T18:10:51.592Z,6.40
2022-08-21T18:13:38.962Z,5.80
2022-08-21T18:16:07.617Z,6.00
2022-08-21T18:18:43.644Z,5.00
2022-08-21T18:21:11.619Z,5.70
2022-08-21T18:23:44.106Z,4.40
2022-08-21T18:26:27.052Z,5.20
2022-08-21T18:29:00.286Z,4.90
2022-08-21T18:31:31.892Z,7.40
2022-08-21T18:34:06.331Z,5.30
2022-08-21T18:36:34.488Z,7.40
2022-08-21T18:39:25.825Z,5.60
2022-08-21T18:41:52.113Z,5.30
2022-08-21T18:44:24.746Z,4.50
2022-08-21T18:47:00.054Z,3.80
2022-08-21T18:49:29.270Z,4.20
2022-08-21T18:51:57.947Z,2.90
2022-08-21T18:54:26.875Z,5.70
2022-08-21T18:56:55.655Z,5.10
2022-08-21T18:59:30.648Z,4.30
2022-08-21T19:01:59.421Z,3.70
2022-08-21T19:04:43.589Z,5.10
2022-08-21T19:07:16.435Z,5.40
2022-08-21T19:09:56.845Z,5.10
2022-08-21T19:12:32.247Z,5.00
2022-08-21T19:15:03.158Z,3.60
2022-08-21T19:17:32.409Z,2.60
2022-08-21T19:20:19.450Z,3.60
2022-08-21T19:22:56.542Z,4.60
2022-08-21T19:25:33.748Z,3.00
2022-08-21T19:28:11.141Z,3.30
2022-08-21T19:30:45.958Z,5.00
2022-08-21T19:33:26.463Z,4.70
2022-08-21T19:35:54.384Z,4.50
2022-08-21T19:38:22.857Z,4.40
2022-08-21T19:40:52.943Z,3.20
2022-08-21T19:46:11.665Z,4.20
2022-08-21T19:48:40.681Z,3.70
2022-08-21T19:51:11.790Z,3.50
2022-08-21T19:53:40.256Z,5.70
2022-08-21T19:56:18.759Z,4.00
2022-08-21T19:58:49.909Z,3.70
2022-08-21T20:01:23.041Z,3.00
2022-08-21T20:03:54.200Z,3.80
2022-08-21T20:06:24.496Z,3.40
2022-08-21T20:08:55.248Z,3.80
2022-08-21T20:11:39.460Z,4.80
2022-08-21T20:14:10.470Z,4.70
2022-08-21T20:16:41.431Z,4.70
2022-08-21T20:19:10.647Z,3.80
2022-08-21T20:21:43.557Z,4.60
2022-08-21T20:24:15.368Z,3.80
2022-08-21T20:26:48.725Z,4.00
2022-08-21T20:29:24.149Z,3.10
2022-08-21T20:32:00.825Z,5.50
2022-08-21T20:34:28.828Z,5.40
2022-08-21T20:36:57.048Z,5.40
2022-08-21T20:39:25.323Z,6.40
2022-08-21T20:41:54.965Z,6.10
2022-08-21T20:44:33.306Z,5.10
2022-08-21T20:47:09.013Z,3.90
2022-08-21T20:49:48.223Z,4.80
2022-08-21T20:52:20.125Z,4.70
2022-08-21T20:55:00.303Z,4.90
2022-08-21T20:58:02.105Z,4.80
2022-08-21T21:00:38.141Z,5.30
2022-08-21T21:03:32.381Z,4.20
2022-08-21T21:06:08.166Z,4.90
2022-08-21T21:08:48.939Z,4.00
2022-08-21T21:11:49.977Z,4.60
2022-08-21T21:14:25.154Z,5.60
2022-08-21T21:17:06.525Z,5.40
2022-08-21T21:19:58.248Z,4.80
2022-08-21T21:22:34.624Z,4.70
2022-08-21T21:25:25.020Z,3.90
2022-08-21T21:28:04.368Z,4.40
2022-08-21T21:30:46.578Z,5.60
2022-08-21T21:33:33.622Z,5.10
2022-08-21T21:36:30.899Z,4.00
2022-08-21T21:39:36.283Z,5.30
2022-08-21T21:42:41.185Z,4.10
2022-08-21T21:45:28.526Z,5.20
2022-08-21T21:48:45.575Z,5.40
2022-08-21T21:51:41.618Z,3.90
2022-08-21T21:54:45.702Z,4.90
2022-08-21T21:57:42.450Z,5.00
2022-08-21T22:00:20.061Z,4.80
2022-08-21T22:03:13.269Z,7.40
2022-08-21T22:06:00.666Z,3.90
2022-08-21T22:09:00.504Z,5.40
2022-08-21T22:11:55.761Z,4.40
2022-08-21T22:14:37.363Z,3.80
2022-08-21T22:17:42.960Z,4.50
2022-08-21T22:20:31.951Z,3.60
2022-08-21T22:23:05.048Z,4.20
2022-08-21T22:25:42.264Z,5.60
2022-08-21T22:28:15.736Z,5.50
2022-08-21T22:30:49.754Z,2.70
2022-08-21T22:33:27.527Z,5.80
2022-08-21T22:35:59.105Z,4.80
2022-08-21T22:38:26.806Z,3.40
2022-08-21T22:41:17.501Z,4.10
2022-08-21T22:44:02.022Z,2.60
2022-08-21T22:46:55.540Z,3.40
2022-08-21T22:49:43.965Z,3.50
2022-08-21T22:52:27.232Z,3.90
2022-08-21T22:55:02.370Z,4.80
2022-08-21T22:57:35.511Z,3.70
2022-08-21T23:00:39.984Z,4.00
2022-08-21T23:03:16.457Z,4.60
2022-08-21T23:05:45.414Z,4.20
2022-08-21T23:08:38.462Z,3.90
2022-08-21T23:11:21.042Z,4.40
2022-08-21T23:13:54.074Z,3.90
2022-08-21T23:16:34.068Z,5.00
2022-08-21T23:19:19.080Z,3.70
2022-08-21T23:22:33.116Z,3.80
2022-08-21T23:28:23.460Z,4.80
2022-08-21T23:31:27.960Z,3.80
2022-08-21T23:34:20.084Z,4.20
2022-08-21T23:40:51.630Z,4.90
2022-08-21T23:43:47.157Z,5.00
2022-08-21T23:46:35.522Z,4.70
2022-08-21T23:49:25.358Z,6.90
2022-08-21T23:52:27.417Z,5.00
2022-08-21T23:55:35.641Z,5.10
2022-08-21T23:58:36.359Z,4.90
